createdAt,value
2017-12-15T00:01:48.523Z,28.58
2017-12-15T00:04:22.187Z,28.50
2017-12-15T00:06:55.875Z,28.39
2017-12-15T00:09:29.733Z,28.44
2017-12-15T00:12:03.928Z,28.42
2017-12-15T00:14:37.727Z,28.47
2017-12-15T00:17:11.422Z,28.56
2017-12-15T00:19:45.056Z,28.51
2017-12-15T00:22:18.717Z,28.51
2017-12-15T00:24:52.141Z,28.50
2017-12-15T00:27:26.171Z,28.51
2017-12-15T00:29:59.967Z,28.47
2017-12-15T00:32:33.678Z,28.44
2017-12-15T00:35:07.500Z,28.46
2017-12-15T00:37:41.326Z,28.36
2017-12-15T00:40:14.865Z,28.40
2017-12-15T00:42:48.757Z,28.40
2017-12-15T00:45:23.001Z,28.40
2017-12-15T00:47:57.279Z,28.37
2017-12-15T00:50:30.933Z,28.39
2017-12-15T00:53:05.091Z,28.50
2017-12-15T00:55:38.980Z,28.42
2017-12-15T00:58:12.589Z,28.34
2017-12-15T01:00:46.569Z,28.38
2017-12-15T01:03:19.993Z,28.47
2017-12-15T01:05:53.733Z,28.48
2017-12-15T01:08:27.472Z,28.47
2017-12-15T01:11:01.406Z,28.31
2017-12-15T01:13:35.025Z,28.20
2017-12-15T01:16:08.677Z,28.08
2017-12-15T01:18:42.475Z,28.02
2017-12-15T01:21:16.645Z,27.72
2017-12-15T01:23:50.314Z,27.70
2017-12-15T01:26:24.133Z,27.61
2017-12-15T01:28:57.896Z,27.62
2017-12-15T01:31:31.639Z,27.60
2017-12-15T01:34:05.313Z,27.67
2017-12-15T01:36:39.365Z,27.46
2017-12-15T01:39:12.980Z,27.38
2017-12-15T01:41:46.737Z,27.44
2017-12-15T01:44:20.485Z,27.47
2017-12-15T01:46:54.059Z,27.40
2017-12-15T01:49:27.676Z,27.41
2017-12-15T01:52:02.064Z,27.40
2017-12-15T01:54:35.734Z,27.39
2017-12-15T01:57:09.187Z,27.42
2017-12-15T01:59:42.922Z,27.36
2017-12-15T02:02:16.607Z,27.35
2017-12-15T02:04:50.363Z,27.43
2017-12-15T02:07:24.351Z,27.36
2017-12-15T02:09:58.014Z,27.25
2017-12-15T02:12:31.968Z,27.35
2017-12-15T02:15:07.085Z,27.37
2017-12-15T02:17:40.842Z,27.67
2017-12-15T02:20:14.688Z,28.11
2017-12-15T02:22:49.633Z,27.97
2017-12-15T02:25:23.226Z,27.91
2017-12-15T02:27:56.864Z,27.81
2017-12-15T02:30:30.637Z,28.07
2017-12-15T02:33:04.190Z,27.94
2017-12-15T02:35:37.895Z,27.75
2017-12-15T02:38:12.094Z,27.61
2017-12-15T02:40:45.953Z,27.56
2017-12-15T02:43:19.505Z,27.47
2017-12-15T02:45:53.335Z,27.47
2017-12-15T02:48:27.255Z,27.35
2017-12-15T02:51:01.102Z,27.40
2017-12-15T02:53:34.917Z,27.37
2017-12-15T02:56:08.458Z,27.33
2017-12-15T02:58:42.072Z,27.50
2017-12-15T03:01:15.713Z,28.10
2017-12-15T03:03:49.738Z,27.83
2017-12-15T03:06:23.326Z,28.08
2017-12-15T03:08:56.980Z,28.19
2017-12-15T03:11:31.066Z,28.00
2017-12-15T03:14:04.859Z,27.78
2017-12-15T03:16:38.383Z,27.67
2017-12-15T03:19:12.305Z,27.96
2017-12-15T03:21:45.982Z,27.82
2017-12-15T03:24:19.800Z,27.62
2017-12-15T03:26:53.497Z,27.58
2017-12-15T03:29:27.347Z,27.45
2017-12-15T03:32:00.901Z,27.46
2017-12-15T03:34:35.170Z,27.35
2017-12-15T03:37:08.781Z,27.37
2017-12-15T03:39:42.567Z,27.32
2017-12-15T03:42:16.153Z,27.33
2017-12-15T03:44:50.086Z,27.32
2017-12-15T03:47:24.314Z,27.29
2017-12-15T03:49:58.005Z,27.90
2017-12-15T03:52:31.615Z,27.60
2017-12-15T03:55:05.269Z,27.97
2017-12-15T03:57:39.054Z,28.01
2017-12-15T04:00:14.776Z,27.83
2017-12-15T04:02:48.088Z,27.63
2017-12-15T04:05:21.688Z,27.53
2017-12-15T04:07:55.432Z,28.02
2017-12-15T04:10:29.047Z,27.68
2017-12-15T04:13:03.064Z,27.51
2017-12-15T04:15:36.692Z,27.37
2017-12-15T04:18:10.299Z,27.28
2017-12-15T04:20:44.081Z,27.28
2017-12-15T04:23:17.599Z,27.22
2017-12-15T04:25:51.251Z,27.19
2017-12-15T04:28:25.389Z,27.10
2017-12-15T04:30:59.001Z,27.08
2017-12-15T04:33:32.560Z,27.06
2017-12-15T04:36:05.997Z,27.02
2017-12-15T04:38:39.712Z,26.99
2017-12-15T04:41:13.761Z,27.00
2017-12-15T04:43:47.828Z,26.94
2017-12-15T04:46:21.428Z,26.91
2017-12-15T04:48:55.150Z,26.87
2017-12-15T04:51:28.701Z,26.84
2017-12-15T04:54:02.258Z,26.83
2017-12-15T04:56:35.949Z,26.85
2017-12-15T04:59:09.856Z,26.82
2017-12-15T05:01:43.615Z,26.78
2017-12-15T05:04:17.539Z,26.71
2017-12-15T05:06:51.150Z,27.02
2017-12-15T05:09:24.642Z,27.23
2017-12-15T05:11:58.363Z,27.26
2017-12-15T05:14:32.558Z,27.24
2017-12-15T05:17:06.251Z,27.15
2017-12-15T05:19:39.991Z,27.02
2017-12-15T05:22:13.860Z,26.87
2017-12-15T05:24:47.560Z,26.74
2017-12-15T05:27:21.281Z,26.64
2017-12-15T05:29:54.953Z,26.60
2017-12-15T05:32:28.553Z,26.56
2017-12-15T05:35:02.413Z,26.54
2017-12-15T05:37:36.025Z,26.48
2017-12-15T05:40:09.789Z,26.47
2017-12-15T05:42:43.305Z,26.48
2017-12-15T05:45:16.858Z,26.43
2017-12-15T05:47:50.810Z,26.40
2017-12-15T05:50:24.622Z,26.40
2017-12-15T05:52:58.544Z,26.38
2017-12-15T05:55:32.672Z,26.36
2017-12-15T05:58:06.359Z,26.37
2017-12-15T06:00:40.169Z,26.36
2017-12-15T06:03:13.891Z,26.33
2017-12-15T06:05:47.743Z,26.32
2017-12-15T06:08:21.529Z,26.34
2017-12-15T06:10:55.622Z,26.36
2017-12-15T06:13:29.327Z,26.34
2017-12-15T06:16:02.972Z,26.33
2017-12-15T06:18:36.749Z,26.31
2017-12-15T06:21:10.593Z,26.34
2017-12-15T06:23:44.342Z,26.38
2017-12-15T06:26:17.968Z,26.38
2017-12-15T06:28:51.758Z,26.94
2017-12-15T06:31:25.773Z,27.09
2017-12-15T06:33:59.436Z,27.09
2017-12-15T06:36:33.529Z,27.03
2017-12-15T06:39:07.120Z,27.01
2017-12-15T06:41:40.793Z,26.79
2017-12-15T06:44:14.596Z,26.64
2017-12-15T06:46:48.329Z,26.58
2017-12-15T06:49:22.640Z,26.49
2017-12-15T06:51:56.462Z,26.45
2017-12-15T06:54:30.138Z,26.45
2017-12-15T06:57:03.880Z,26.44
2017-12-15T06:59:37.634Z,26.43
2017-12-15T07:02:11.322Z,26.41
2017-12-15T07:04:45.209Z,26.42
2017-12-15T07:07:18.858Z,26.37
2017-12-15T07:09:52.696Z,26.39
2017-12-15T07:12:26.525Z,26.41
2017-12-15T07:15:00.188Z,26.42
2017-12-15T07:17:37.308Z,26.44
2017-12-15T07:20:11.596Z,26.43
2017-12-15T07:22:45.416Z,26.48
2017-12-15T07:25:19.592Z,26.46
2017-12-15T07:27:53.046Z,26.44
2017-12-15T07:30:26.593Z,26.46
2017-12-15T07:33:00.375Z,26.45
2017-12-15T07:35:34.364Z,26.47
2017-12-15T07:38:08.121Z,26.51
2017-12-15T07:40:41.882Z,26.52
2017-12-15T07:43:15.795Z,26.50
2017-12-15T07:45:49.527Z,26.44
2017-12-15T07:48:23.652Z,26.41
2017-12-15T07:50:57.388Z,26.43
2017-12-15T07:53:31.244Z,26.60
2017-12-15T07:56:05.431Z,27.19
2017-12-15T07:58:39.048Z,27.24
2017-12-15T08:01:13.044Z,27.10
2017-12-15T08:03:46.851Z,27.10
2017-12-15T08:06:20.571Z,26.95
2017-12-15T08:08:54.245Z,26.85
2017-12-15T08:11:27.956Z,26.74
2017-12-15T08:14:01.473Z,26.67
2017-12-15T08:16:35.275Z,26.64
2017-12-15T08:19:09.508Z,26.66
2017-12-15T08:21:43.237Z,26.60
2017-12-15T08:24:17.006Z,26.60
2017-12-15T08:26:50.841Z,26.62
2017-12-15T08:29:24.689Z,26.56
2017-12-15T08:31:58.986Z,26.56
2017-12-15T08:34:32.942Z,26.58
2017-12-15T08:37:06.762Z,26.63
2017-12-15T08:39:40.521Z,26.73
2017-12-15T08:42:14.262Z,26.72
2017-12-15T08:44:48.114Z,26.71
2017-12-15T08:47:21.948Z,26.72
2017-12-15T08:49:55.817Z,26.74
2017-12-15T08:52:29.647Z,26.78
2017-12-15T08:55:03.578Z,26.82
2017-12-15T08:57:37.430Z,26.83
2017-12-15T09:00:12.333Z,26.82
2017-12-15T09:02:46.057Z,26.82
2017-12-15T09:05:20.523Z,26.89
2017-12-15T09:07:54.204Z,26.87
2017-12-15T09:10:28.757Z,26.98
2017-12-15T09:13:02.952Z,26.91
2017-12-15T09:15:36.583Z,26.93
2017-12-15T09:18:10.231Z,27.01
2017-12-15T09:20:44.013Z,26.93
2017-12-15T09:23:17.732Z,26.98
2017-12-15T09:25:51.961Z,27.00
2017-12-15T09:28:25.635Z,27.01
2017-12-15T09:30:59.466Z,26.96
2017-12-15T09:33:33.300Z,27.03
2017-12-15T09:36:07.980Z,26.96
2017-12-15T09:38:41.706Z,27.09
2017-12-15T09:41:15.932Z,27.10
2017-12-15T09:43:49.602Z,27.09
2017-12-15T09:46:23.585Z,27.07
2017-12-15T09:48:57.279Z,27.07
2017-12-15T09:51:30.967Z,27.06
2017-12-15T09:54:04.714Z,27.08
2017-12-15T09:56:39.013Z,27.12
2017-12-15T09:59:12.810Z,27.03
2017-12-15T10:01:46.691Z,27.06
2017-12-15T10:04:20.965Z,27.07
2017-12-15T10:06:54.470Z,27.07
2017-12-15T10:09:28.220Z,27.13
2017-12-15T10:12:02.045Z,27.23
2017-12-15T10:14:35.822Z,27.25
2017-12-15T10:17:09.783Z,27.25
2017-12-15T10:19:44.099Z,27.28
2017-12-15T10:22:17.942Z,27.22
2017-12-15T10:24:51.672Z,27.25
2017-12-15T10:27:25.392Z,27.26
2017-12-15T10:29:59.493Z,27.27
2017-12-15T10:32:33.266Z,27.29
2017-12-15T10:35:06.839Z,27.29
2017-12-15T10:37:40.859Z,27.35
2017-12-15T10:40:14.464Z,27.24
2017-12-15T10:42:48.085Z,27.32
2017-12-15T10:45:21.864Z,27.29
2017-12-15T10:47:55.511Z,27.32
2017-12-15T10:50:29.362Z,27.24
2017-12-15T10:53:03.722Z,27.22
2017-12-15T10:55:37.582Z,27.33
2017-12-15T10:58:11.393Z,27.35
2017-12-15T11:00:45.165Z,27.28
2017-12-15T11:03:18.811Z,27.29
2017-12-15T11:05:52.584Z,27.25
2017-12-15T11:08:26.515Z,27.29
2017-12-15T11:11:00.244Z,27.29
2017-12-15T11:13:35.398Z,27.29
2017-12-15T11:16:08.989Z,27.33
2017-12-15T11:18:42.611Z,27.31
2017-12-15T11:21:16.472Z,27.19
2017-12-15T11:23:50.262Z,27.32
2017-12-15T11:26:24.223Z,27.32
2017-12-15T11:28:57.871Z,27.28
2017-12-15T11:31:31.615Z,27.30
2017-12-15T11:34:05.234Z,27.18
2017-12-15T11:36:39.221Z,27.28
2017-12-15T11:39:12.863Z,27.25
2017-12-15T11:41:46.741Z,27.16
2017-12-15T11:44:20.521Z,27.21
2017-12-15T11:46:54.514Z,27.26
2017-12-15T11:49:28.655Z,27.18
2017-12-15T11:52:02.924Z,27.21
2017-12-15T11:54:36.918Z,27.21
2017-12-15T11:57:10.696Z,27.27
2017-12-15T11:59:44.352Z,27.26
2017-12-15T12:02:18.599Z,27.26
2017-12-15T12:04:52.775Z,27.15
2017-12-15T12:07:26.514Z,27.29
2017-12-15T12:10:00.102Z,27.28
2017-12-15T12:12:33.900Z,27.27
2017-12-15T12:15:07.730Z,27.21
2017-12-15T12:17:41.909Z,27.22
2017-12-15T12:20:15.525Z,27.14
2017-12-15T12:22:49.399Z,27.16
2017-12-15T12:25:23.247Z,27.17
2017-12-15T12:27:57.084Z,27.21
2017-12-15T12:30:31.126Z,27.21
2017-12-15T12:33:04.947Z,27.23
2017-12-15T12:35:38.702Z,27.28
2017-12-15T12:38:12.353Z,27.22
2017-12-15T12:40:46.416Z,27.16
2017-12-15T12:43:20.090Z,27.25
2017-12-15T12:45:53.874Z,27.20
2017-12-15T12:48:27.609Z,26.94
2017-12-15T12:51:01.633Z,27.17
2017-12-15T12:53:35.433Z,27.23
2017-12-15T12:56:09.896Z,27.17
2017-12-15T12:58:44.052Z,27.10
2017-12-15T13:01:17.681Z,27.16
2017-12-15T13:03:51.435Z,27.18
2017-12-15T13:06:26.070Z,27.19
2017-12-15T13:08:59.842Z,27.16
2017-12-15T13:11:33.664Z,27.10
2017-12-15T13:14:08.435Z,27.13
2017-12-15T13:16:42.196Z,27.14
2017-12-15T13:19:16.065Z,27.10
2017-12-15T13:21:49.885Z,27.19
2017-12-15T13:24:23.630Z,27.21
2017-12-15T13:26:57.951Z,27.18
2017-12-15T13:29:31.574Z,27.24
2017-12-15T13:32:05.228Z,27.32
2017-12-15T13:34:39.005Z,27.51
2017-12-15T13:37:12.848Z,27.57
2017-12-15T13:39:46.290Z,27.59
2017-12-15T13:42:20.015Z,27.53
2017-12-15T13:44:52.004Z,27.53
2017-12-15T13:47:25.841Z,27.50
2017-12-15T13:49:59.799Z,27.44
2017-12-15T13:52:33.700Z,27.37
2017-12-15T13:55:07.389Z,27.42
2017-12-15T13:57:41.527Z,27.40
2017-12-15T14:00:17.072Z,27.45
2017-12-15T14:02:51.162Z,27.36
2017-12-15T14:05:25.199Z,27.32
2017-12-15T14:07:59.074Z,27.34
2017-12-15T14:10:33.182Z,27.26
2017-12-15T14:13:07.028Z,27.35
2017-12-15T14:15:40.733Z,27.32
2017-12-15T14:18:14.648Z,27.31
2017-12-15T14:20:48.382Z,27.30
2017-12-15T14:23:23.122Z,27.42
2017-12-15T14:25:56.744Z,27.40
2017-12-15T14:28:30.391Z,27.34
2017-12-15T14:31:04.047Z,27.37
2017-12-15T14:33:38.099Z,27.42
2017-12-15T14:36:11.850Z,27.34
2017-12-15T14:38:46.580Z,27.29
2017-12-15T14:41:20.139Z,27.20
2017-12-15T14:43:53.807Z,27.21
2017-12-15T14:46:27.524Z,27.13
2017-12-15T14:49:01.316Z,27.04
2017-12-15T14:51:35.059Z,27.04
2017-12-15T14:54:08.624Z,26.95
2017-12-15T14:56:42.298Z,26.83
2017-12-15T14:59:16.089Z,26.87
2017-12-15T15:01:50.044Z,26.86
2017-12-15T15:04:23.737Z,26.87
2017-12-15T15:06:58.129Z,26.92
2017-12-15T15:09:32.019Z,26.95
2017-12-15T15:12:06.156Z,27.17
2017-12-15T15:14:40.020Z,27.20
2017-12-15T15:17:14.280Z,26.75
2017-12-15T15:19:48.473Z,26.84
2017-12-15T15:22:22.438Z,26.80
2017-12-15T15:24:55.965Z,26.76
2017-12-15T15:27:29.627Z,26.77
2017-12-15T15:30:04.513Z,26.74
2017-12-15T15:32:38.561Z,26.79
2017-12-15T15:35:12.433Z,26.81
2017-12-15T15:37:45.972Z,26.86
2017-12-15T15:40:20.094Z,26.90
2017-12-15T15:42:53.650Z,26.87
2017-12-15T15:45:27.182Z,26.90
2017-12-15T15:48:00.704Z,26.91
2017-12-15T15:50:34.476Z,26.98
2017-12-15T15:53:08.124Z,27.18
2017-12-15T15:55:41.953Z,27.23
2017-12-15T15:58:16.096Z,26.90
2017-12-15T16:00:49.965Z,27.03
2017-12-15T16:03:23.730Z,27.09
2017-12-15T16:05:57.558Z,27.01
2017-12-15T16:08:31.424Z,26.97
2017-12-15T16:11:04.962Z,26.90
2017-12-15T16:13:38.885Z,27.01
2017-12-15T16:16:12.533Z,27.00
2017-12-15T16:18:46.373Z,26.97
2017-12-15T16:21:20.158Z,26.98
2017-12-15T16:23:54.200Z,26.94
2017-12-15T16:26:28.214Z,27.07
2017-12-15T16:29:02.272Z,27.00
2017-12-15T16:31:36.002Z,26.98
2017-12-15T16:34:10.227Z,26.97
2017-12-15T16:36:44.121Z,26.96
2017-12-15T16:39:17.517Z,26.99
2017-12-15T16:41:51.163Z,27.02
2017-12-15T16:44:25.386Z,26.98
2017-12-15T16:46:59.831Z,26.98
2017-12-15T16:49:33.742Z,27.01
2017-12-15T16:52:07.517Z,27.01
2017-12-15T16:54:41.260Z,27.04
2017-12-15T16:57:15.110Z,27.01
2017-12-15T16:59:48.939Z,27.03
2017-12-15T17:02:22.702Z,27.05
2017-12-15T17:04:56.511Z,27.02
2017-12-15T17:07:30.232Z,27.05
2017-12-15T17:10:04.145Z,27.11
2017-12-15T17:12:37.893Z,27.08
2017-12-15T17:15:13.926Z,27.06
2017-12-15T17:17:47.546Z,27.04
2017-12-15T17:20:21.292Z,27.06
2017-12-15T17:22:55.087Z,27.01
2017-12-15T17:25:29.236Z,26.96
2017-12-15T17:28:02.727Z,26.94
2017-12-15T17:30:36.566Z,27.00
2017-12-15T17:33:10.252Z,27.05
2017-12-15T17:35:43.927Z,27.09
2017-12-15T17:38:17.828Z,27.05
2017-12-15T17:40:51.917Z,27.06
2017-12-15T17:43:25.704Z,27.05
2017-12-15T17:45:59.878Z,27.16
2017-12-15T17:48:34.390Z,27.00
2017-12-15T17:51:08.172Z,26.98
2017-12-15T17:53:42.347Z,26.98
2017-12-15T17:56:16.186Z,27.09
2017-12-15T17:58:50.099Z,27.18
2017-12-15T18:01:23.832Z,27.18
2017-12-15T18:03:57.661Z,27.17
2017-12-15T18:06:31.260Z,27.36
2017-12-15T18:09:05.642Z,27.26
2017-12-15T18:11:39.436Z,27.22
2017-12-15T18:14:13.230Z,27.16
2017-12-15T18:16:47.128Z,27.15
2017-12-15T18:19:21.258Z,27.13
2017-12-15T18:21:55.294Z,27.06
2017-12-15T18:24:29.046Z,27.03
2017-12-15T18:27:02.933Z,26.97
2017-12-15T18:29:36.684Z,26.95
2017-12-15T18:32:10.695Z,26.95
2017-12-15T18:34:44.494Z,26.96
2017-12-15T18:37:18.312Z,26.93
2017-12-15T18:39:52.197Z,26.89
2017-12-15T18:42:25.954Z,26.88
2017-12-15T18:45:00.101Z,26.88
2017-12-15T18:47:37.260Z,26.85
2017-12-15T18:50:11.071Z,26.83
2017-12-15T18:52:44.693Z,26.81
2017-12-15T18:55:18.300Z,26.77
2017-12-15T18:57:52.065Z,26.77
2017-12-15T19:00:26.334Z,26.76
2017-12-15T19:03:00.202Z,26.72
2017-12-15T19:05:33.710Z,26.72
2017-12-15T19:08:07.265Z,26.70
2017-12-15T19:10:41.102Z,26.70
2017-12-15T19:13:15.197Z,26.77
2017-12-15T19:15:49.168Z,26.67
2017-12-15T19:18:22.977Z,26.67
2017-12-15T19:20:56.464Z,26.68
2017-12-15T19:23:31.079Z,26.69
2017-12-15T19:26:04.897Z,26.67
2017-12-15T19:28:38.712Z,26.73
2017-12-15T19:31:13.036Z,26.76
2017-12-15T19:33:47.134Z,26.70
2017-12-15T19:36:20.935Z,26.72
2017-12-15T19:38:54.849Z,26.68
2017-12-15T19:41:28.795Z,26.69
2017-12-15T19:44:02.689Z,26.77
2017-12-15T19:46:36.782Z,26.81
2017-12-15T19:49:10.648Z,26.77
2017-12-15T19:51:44.453Z,26.80
2017-12-15T19:54:18.331Z,26.75
2017-12-15T19:56:53.419Z,26.78
2017-12-15T19:59:27.048Z,26.78
2017-12-15T20:02:00.835Z,26.77
2017-12-15T20:04:34.999Z,26.79
2017-12-15T20:07:09.091Z,26.77
2017-12-15T20:09:43.492Z,26.78
2017-12-15T20:12:17.705Z,26.81
2017-12-15T20:14:51.444Z,26.82
2017-12-15T20:17:25.253Z,26.79
2017-12-15T20:19:58.942Z,26.82
2017-12-15T20:22:32.951Z,26.83
2017-12-15T20:25:07.274Z,26.84
2017-12-15T20:27:41.009Z,26.87
2017-12-15T20:30:16.331Z,26.87
2017-12-15T20:32:50.958Z,26.82
2017-12-15T20:35:24.709Z,26.84
2017-12-15T20:37:58.637Z,26.89
2017-12-15T20:40:32.354Z,26.82
2017-12-15T20:43:06.193Z,26.89
2017-12-15T20:45:40.677Z,26.91
2017-12-15T20:48:14.427Z,26.82
2017-12-15T20:50:48.275Z,26.85
2017-12-15T20:53:22.995Z,26.87
2017-12-15T20:55:56.916Z,26.87
2017-12-15T20:58:31.295Z,26.95
2017-12-15T21:01:05.004Z,27.12
2017-12-15T21:03:38.619Z,27.17
2017-12-15T21:06:12.911Z,27.28
2017-12-15T21:08:47.241Z,27.31
2017-12-15T21:11:20.965Z,27.38
2017-12-15T21:13:54.593Z,27.41
2017-12-15T21:16:28.387Z,27.37
2017-12-15T21:19:02.147Z,27.36
2017-12-15T21:21:36.037Z,27.45
2017-12-15T21:24:09.677Z,27.45
2017-12-15T21:26:43.516Z,27.46
2017-12-15T21:29:17.307Z,27.45
2017-12-15T21:31:51.278Z,27.46
2017-12-15T21:34:24.987Z,27.37
2017-12-15T21:36:59.050Z,27.39
2017-12-15T21:39:33.098Z,27.50
2017-12-15T21:42:06.832Z,27.54
2017-12-15T21:44:40.616Z,27.57
2017-12-15T21:47:14.834Z,27.65
2017-12-15T21:49:48.574Z,27.68
2017-12-15T21:52:22.198Z,27.63
2017-12-15T21:54:56.870Z,27.61
2017-12-15T21:57:30.738Z,27.62
2017-12-15T22:00:06.094Z,27.94
2017-12-15T22:02:39.803Z,28.05
2017-12-15T22:05:14.290Z,28.29
2017-12-15T22:07:48.168Z,28.34
2017-12-15T22:10:21.894Z,28.39
2017-12-15T22:12:55.558Z,28.34
2017-12-15T22:15:29.606Z,28.16
2017-12-15T22:18:03.416Z,28.24
2017-12-15T22:20:37.156Z,28.13
2017-12-15T22:23:10.989Z,28.14
2017-12-15T22:25:44.802Z,28.00
2017-12-15T22:28:18.630Z,27.98
2017-12-15T22:30:52.741Z,28.02
2017-12-15T22:33:26.364Z,27.90
2017-12-15T22:36:00.165Z,27.87
2017-12-15T22:38:33.841Z,27.85
2017-12-15T22:41:07.956Z,27.80
2017-12-15T22:43:41.601Z,27.84
2017-12-15T22:46:16.058Z,27.71
2017-12-15T22:48:49.902Z,27.64
2017-12-15T22:51:23.598Z,27.70
2017-12-15T22:53:58.244Z,27.75
2017-12-15T22:56:32.182Z,27.62
2017-12-15T22:59:05.867Z,27.63
2017-12-15T23:01:39.513Z,27.56
2017-12-15T23:04:13.280Z,27.58
2017-12-15T23:06:47.325Z,27.45
2017-12-15T23:09:21.097Z,25.80
2017-12-15T23:11:53.665Z,25.55
2017-12-15T23:14:27.331Z,25.27
2017-12-15T23:17:01.096Z,25.46
2017-12-15T23:19:35.419Z,25.57
2017-12-15T23:22:09.176Z,25.52
2017-12-15T23:24:42.924Z,25.57
2017-12-15T23:27:16.762Z,25.71
2017-12-15T23:29:50.563Z,25.77
2017-12-15T23:32:24.967Z,25.73
2017-12-15T23:34:58.516Z,25.83
2017-12-15T23:37:32.176Z,25.86
2017-12-15T23:40:06.502Z,26.04
2017-12-15T23:42:40.800Z,25.94
2017-12-15T23:45:16.452Z,26.11
2017-12-15T23:47:50.295Z,26.24
2017-12-15T23:50:23.980Z,26.39
2017-12-15T23:52:58.147Z,26.62
2017-12-15T23:57:38.770Z,26.74
